Time;durP1;ratioP1;P1;durP2;ratioP2;P2;SDS_P1;SDS_P2;PMS_P1;PMS_P2;Temp;Humidity;BMP_temperature;BMP_pressure;BME280_temperature;BME280_humidity;BME280_pressure;Samples;Min_cycle;Max_cycle;Signal;HPM_P1;HPM_P2
2022/09/29 00:01:24;;;;;;;10.37;7.90;;;;;6.70;99448.00;;;;13039171;22;20167;-76
2022/09/29 00:06:25;;;;;;;11.27;6.57;;;;;6.70;99444.00;;;;13089075;22;20193;-76
2022/09/29 00:11:26;;;;;;;7.97;6.67;;;;;6.60;99439.00;;;;13041644;22;20186;-76
2022/09/29 00:16:28;;;;;;;10.33;6.80;;;;;6.60;99445.00;;;;13016323;22;20191;-76
2022/09/29 00:21:29;;;;;;;8.40;6.23;;;;;6.50;99429.00;;;;13041797;22;20194;-76
2022/09/29 00:26:30;;;;;;;10.40;6.67;;;;;6.50;99434.00;;;;13012916;22;20171;-75
2022/09/29 00:31:33;;;;;;;7.93;6.10;;;;;6.40;99429.00;;;;13067206;22;20661;-76
2022/09/29 00:36:34;;;;;;;8.57;6.00;;;;;6.40;99428.00;;;;13040967;22;20222;-76
2022/09/29 00:41:37;;;;;;;10.37;6.50;;;;;6.30;99428.00;;;;13040598;22;20536;-76
2022/09/29 00:47:00;;;;;;;7.87;5.93;;;;;6.40;99436.00;;;;13014644;22;20171;-76
2022/09/29 00:52:26;;;;;;;9.40;6.13;;;;;6.40;99442.00;;;;13086321;22;20522;-76
2022/09/29 00:57:40;;;;;;;10.23;7.30;;;;;6.40;99437.00;;;;13062779;22;20190;-75
2022/09/29 01:02:58;;;;;;;8.87;6.10;;;;;6.40;99439.00;;;;13013577;22;20175;-75
2022/09/29 01:08:15;;;;;;;8.83;6.57;;;;;6.30;99439.00;;;;13062186;22;20167;-75
2022/09/29 01:13:18;;;;;;;8.60;6.90;;;;;6.20;99434.00;;;;13036049;22;20181;-76
2022/09/29 01:18:19;;;;;;;9.23;6.53;;;;;6.10;99433.00;;;;13039543;22;20192;-75
2022/09/29 01:23:34;;;;;;;10.77;7.67;;;;;6.00;99433.00;;;;13014568;22;20254;-76
2022/09/29 01:29:01;;;;;;;10.80;7.33;;;;;6.00;99433.00;;;;13035145;22;20238;-75
2022/09/29 01:34:12;;;;;;;8.77;6.77;;;;;5.90;99429.00;;;;13059905;22;20189;-75
2022/09/29 01:39:24;;;;;;;12.13;7.20;;;;;6.00;99438.00;;;;13040715;22;20174;-76
2022/09/29 01:44:44;;;;;;;12.97;8.07;;;;;6.00;99439.00;;;;13036762;22;20172;-75
2022/09/29 01:49:53;;;;;;;10.23;7.30;;;;;6.00;99430.00;;;;13035002;22;20208;-75
2022/09/29 01:55:06;;;;;;;12.47;8.57;;;;;6.00;99439.00;;;;13018003;22;20256;-75
2022/09/29 02:00:14;;;;;;;11.07;7.97;;;;;6.00;99429.00;;;;13017644;22;20175;-76
2022/09/29 02:05:25;;;;;;;16.27;8.63;;;;;6.00;99438.00;;;;13038227;22;20598;-75
2022/09/29 02:10:36;;;;;;;19.90;7.80;;;;;6.00;99423.00;;;;13015436;22;20222;-75
2022/09/29 02:15:44;;;;;;;16.23;8.30;;;;;6.00;99425.00;;;;13041988;22;20195;-75
2022/09/29 02:20:46;;;;;;;12.27;8.20;;;;;6.00;99434.00;;;;13067058;22;20179;-75
2022/09/29 02:25:49;;;;;;;11.57;8.20;;;;;6.00;99436.00;;;;13042290;22;20198;-75
2022/09/29 02:30:51;;;;;;;10.17;8.07;;;;;5.90;99431.00;;;;13063918;22;20206;-75
2022/09/29 02:36:24;;;;;;;11.33;7.33;;;;;5.80;99435.00;;;;13065184;22;20286;-75
2022/09/29 02:41:36;;;;;;;13.87;8.90;;;;;5.80;99424.00;;;;13040866;22;20195;-75
2022/09/29 02:47:14;;;;;;;14.40;7.53;;;;;5.80;99427.00;;;;13015566;22;20183;-75
2022/09/29 02:52:49;;;;;;;11.73;7.23;;;;;5.80;99425.00;;;;13041483;22;20757;-75
2022/09/29 02:58:12;;;;;;;10.20;7.17;;;;;5.90;99432.00;;;;13042838;22;20202;-75
2022/09/29 03:03:13;;;;;;;12.83;7.33;;;;;5.90;99432.00;;;;13089655;22;20242;-75
2022/09/29 03:08:15;;;;;;;14.37;6.90;;;;;5.90;99437.00;;;;13041513;22;20191;-75
2022/09/29 03:13:16;;;;;;;10.33;7.07;;;;;5.80;99433.00;;;;13041484;22;20175;-75
2022/09/29 03:18:18;;;;;;;12.30;7.20;;;;;5.70;99446.00;;;;13040825;22;20539;-75
2022/09/29 03:23:19;;;;;;;10.40;6.90;;;;;5.70;99440.00;;;;13015784;22;20167;-75
2022/09/29 03:28:20;;;;;;;12.37;6.93;;;;;5.70;99433.00;;;;13088820;22;20198;-75
2022/09/29 03:33:21;;;;;;;10.93;6.73;;;;;5.70;99437.00;;;;13066925;22;20167;-75
2022/09/29 03:38:23;;;;;;;18.77;8.33;;;;;5.80;99439.00;;;;12991634;22;20195;-75
2022/09/29 03:43:24;;;;;;;9.97;7.33;;;;;5.90;99433.00;;;;13064174;22;20167;-75
2022/09/29 03:48:29;;;;;;;11.50;8.17;;;;;6.00;99433.00;;;;13014759;22;20563;-75
2022/09/29 03:53:33;;;;;;;15.70;8.07;;;;;6.10;99444.00;;;;13018496;22;20163;-75
2022/09/29 03:58:34;;;;;;;15.37;7.63;;;;;6.10;99442.00;;;;13063996;22;20183;-75
2022/09/29 04:03:35;;;;;;;12.23;7.47;;;;;6.10;99441.00;;;;13041273;22;20269;-75
2022/09/29 04:08:37;;;;;;;14.33;7.63;;;;;6.20;99448.00;;;;13067262;22;20199;-75
2022/09/29 04:13:38;;;;;;;15.97;8.07;;;;;6.30;99443.00;;;;13088253;22;20167;-75
2022/09/29 04:18:39;;;;;;;14.20;8.43;;;;;6.40;99451.00;;;;13013139;22;20191;-75
2022/09/29 04:23:41;;;;;;;15.30;8.83;;;;;6.40;99456.00;;;;13061095;22;20159;-75
2022/09/29 04:28:42;;;;;;;15.30;7.90;;;;;6.40;99451.00;;;;13036420;22;20224;-75
2022/09/29 04:33:43;;;;;;;9.10;7.40;;;;;6.30;99453.00;;;;13062085;22;20178;-75
2022/09/29 04:38:44;;;;;;;12.73;8.37;;;;;6.10;99454.00;;;;13061883;22;20190;-75
2022/09/29 04:43:46;;;;;;;11.60;7.83;;;;;6.00;99458.00;;;;13015602;22;20183;-75
2022/09/29 04:48:47;;;;;;;12.50;8.40;;;;;5.90;99469.00;;;;13037242;22;20163;-75
2022/09/29 04:53:48;;;;;;;13.23;8.67;;;;;5.80;99468.00;;;;13086759;22;20187;-75
2022/09/29 04:58:49;;;;;;;15.60;7.97;;;;;5.80;99462.00;;;;13061476;22;20165;-75
2022/09/29 05:03:51;;;;;;;11.73;7.33;;;;;5.90;99465.00;;;;13059778;22;20159;-75
2022/09/29 05:08:52;;;;;;;8.47;7.13;;;;;5.90;99465.00;;;;13037786;22;20218;-74
2022/09/29 05:13:54;;;;;;;14.90;7.77;;;;;5.90;99468.00;;;;13034374;22;20164;-75
2022/09/29 05:18:55;;;;;;;12.83;7.67;;;;;5.90;99474.00;;;;13011400;22;20163;-75
2022/09/29 05:23:56;;;;;;;11.87;8.23;;;;;5.90;99475.00;;;;13067588;22;20174;-75
2022/09/29 05:28:57;;;;;;;11.37;7.67;;;;;5.80;99475.00;;;;13044281;22;20730;-75
2022/09/29 05:33:59;;;;;;;12.00;7.83;;;;;5.70;99476.00;;;;13041314;22;20171;-75
2022/09/29 05:39:00;;;;;;;13.63;7.70;;;;;5.70;99483.00;;;;13038543;22;20162;-75
2022/09/29 05:44:02;;;;;;;12.47;8.10;;;;;5.70;99478.00;;;;13014805;22;20193;-76
2022/09/29 05:49:03;;;;;;;15.23;8.50;;;;;5.70;99490.00;;;;13089156;22;20165;-75
2022/09/29 05:54:04;;;;;;;15.30;7.80;;;;;5.70;99488.00;;;;13041969;22;20168;-75
2022/09/29 05:59:06;;;;;;;12.47;8.00;;;;;5.70;99498.00;;;;13040830;22;20164;-75
2022/09/29 06:04:08;;;;;;;17.60;9.27;;;;;5.80;99491.00;;;;13014734;22;20202;-75
2022/09/29 06:09:09;;;;;;;13.03;8.17;;;;;5.90;99502.00;;;;13040332;22;20183;-75
2022/09/29 06:14:10;;;;;;;11.43;8.30;;;;;6.00;99503.00;;;;13035725;22;20164;-75
2022/09/29 06:19:12;;;;;;;22.97;8.60;;;;;6.10;99509.00;;;;13041221;22;20250;-75
2022/09/29 06:24:13;;;;;;;13.80;8.63;;;;;6.10;99511.00;;;;13060199;22;20175;-75
2022/09/29 06:29:14;;;;;;;16.50;8.70;;;;;6.20;99516.00;;;;13038070;22;20163;-75
2022/09/29 06:34:16;;;;;;;16.70;10.27;;;;;6.20;99515.00;;;;13040215;22;20195;-75
2022/09/29 06:39:17;;;;;;;19.33;9.97;;;;;6.60;99523.00;;;;13086744;22;20243;-75
2022/09/29 06:44:20;;;;;;;15.83;9.60;;;;;6.90;99524.00;;;;13063504;22;20178;-76
2022/09/29 06:49:22;;;;;;;15.00;9.30;;;;;7.10;99530.00;;;;13062166;22;20160;-75
2022/09/29 06:54:24;;;;;;;23.57;10.33;;;;;7.30;99536.00;;;;13040822;22;20218;-75
2022/09/29 06:59:25;;;;;;;70.57;12.53;;;;;7.50;99535.00;;;;13041771;22;20195;-75
2022/09/29 07:04:26;;;;;;;18.13;10.47;;;;;7.80;99530.00;;;;13060312;22;20168;-75
2022/09/29 07:09:28;;;;;;;15.10;8.77;;;;;8.00;99528.00;;;;13086797;22;20187;-75
2022/09/29 07:14:29;;;;;;;12.20;8.53;;;;;8.30;99538.00;;;;13013445;22;20227;-75
2022/09/29 07:19:31;;;;;;;14.20;9.53;;;;;8.40;99538.00;;;;13088602;22;20229;-76
2022/09/29 07:24:32;;;;;;;18.13;8.70;;;;;8.50;99555.00;;;;13041621;22;20446;-76
2022/09/29 07:29:34;;;;;;;16.13;9.70;;;;;8.60;99563.00;;;;13015846;22;20179;-76
2022/09/29 07:34:35;;;;;;;18.10;8.60;;;;;8.70;99565.00;;;;13042343;22;20194;-76
2022/09/29 07:39:36;;;;;;;17.17;8.87;;;;;8.80;99566.00;;;;13041721;22;20236;-76
2022/09/29 07:44:37;;;;;;;17.23;8.97;;;;;8.90;99570.00;;;;13060590;22;20167;-76
2022/09/29 07:49:39;;;;;;;13.30;8.97;;;;;8.90;99575.00;;;;13010557;22;20258;-76
2022/09/29 07:54:41;;;;;;;13.67;7.90;;;;;8.90;99578.00;;;;13087222;22;20221;-76
2022/09/29 07:59:42;;;;;;;19.67;8.83;;;;;9.20;99584.00;;;;13080932;22;20997;-76
2022/09/29 08:04:53;;;;;;;15.27;9.13;;;;;9.50;99592.00;;;;13014296;22;20176;-76
2022/09/29 08:10:01;;;;;;;16.23;8.43;;;;;9.60;99591.00;;;;13038270;22;20184;-76
2022/09/29 08:15:17;;;;;;;10.83;8.47;;;;;10.00;99599.00;;;;13064726;22;20179;-76
2022/09/29 08:20:18;;;;;;;15.00;8.83;;;;;10.60;99603.00;;;;13060451;22;20167;-76
2022/09/29 08:25:19;;;;;;;10.70;7.70;;;;;11.10;99605.00;;;;13065623;22;20213;-76
2022/09/29 08:30:21;;;;;;;15.30;9.20;;;;;11.50;99616.00;;;;13060922;22;20744;-76
2022/09/29 08:35:22;;;;;;;11.03;8.00;;;;;11.70;99621.00;;;;13084396;22;20614;-77
2022/09/29 08:40:28;;;;;;;11.13;7.83;;;;;12.20;99630.00;;;;13039363;22;20179;-76
2022/09/29 08:45:34;;;;;;;21.27;8.43;;;;;12.90;99631.00;;;;13038118;22;20189;-77
2022/09/29 08:50:45;;;;;;;9.63;7.07;;;;;13.40;99637.00;;;;12985678;22;20438;-77
2022/09/29 08:55:52;;;;;;;27.10;8.83;;;;;13.80;99645.00;;;;13040018;22;20219;-77
2022/09/29 09:01:27;;;;;;;10.65;7.30;;;;;14.20;99652.00;;;;13039363;22;20225;-77
2022/09/29 09:06:40;;;;;;;8.18;6.30;;;;;14.50;99660.00;;;;13086695;22;20233;-77
2022/09/29 09:11:50;;;;;;;17.38;7.63;;;;;15.00;99662.00;;;;13009616;22;20202;-77
2022/09/29 09:17:19;;;;;;;8.10;6.10;;;;;15.30;99667.00;;;;13069429;22;20195;-78
2022/09/29 09:22:23;;;;;;;13.50;5.85;;;;;15.70;99677.00;;;;13047754;22;20610;-77
2022/09/29 09:27:40;;;;;;;6.57;5.22;;;;;15.90;99680.00;;;;13040699;22;20182;-77
2022/09/29 09:32:51;;;;;;;8.27;5.78;;;;;16.10;99677.00;;;;13036019;22;20199;-77
2022/09/29 09:37:55;;;;;;;8.45;5.50;;;;;16.30;99692.00;;;;13076764;22;20178;-77
2022/09/29 09:43:01;;;;;;;7.25;4.63;;;;;16.40;99692.00;;;;13046197;22;20167;-77
2022/09/29 09:48:12;;;;;;;6.70;4.10;;;;;16.40;99690.00;;;;13064033;22;20240;-78
2022/09/29 09:53:33;;;;;;;5.43;4.30;;;;;16.40;99689.00;;;;13114536;22;20168;-77
2022/09/29 09:58:54;;;;;;;7.55;5.10;;;;;16.60;99698.00;;;;13018391;22;20195;-77
2022/09/29 10:03:58;;;;;;;6.78;3.92;;;;;16.80;99698.00;;;;13043185;22;20175;-77
2022/09/29 10:08:59;;;;;;;6.88;4.30;;;;;17.00;99700.00;;;;13043357;22;20195;-77
2022/09/29 10:14:09;;;;;;;6.90;4.90;;;;;17.40;99699.00;;;;13061293;22;20172;-77
2022/09/29 10:19:11;;;;;;;8.45;4.50;;;;;17.70;99702.00;;;;13034863;22;20179;-77
2022/09/29 10:24:26;;;;;;;5.68;3.47;;;;;18.20;99706.00;;;;13090620;22;20243;-78
2022/09/29 10:29:35;;;;;;;4.05;3.20;;;;;18.40;99720.00;;;;13019243;22;20187;-78
2022/09/29 10:34:40;;;;;;;6.68;3.00;;;;;18.60;99722.00;;;;13040336;22;20195;-76
2022/09/29 10:39:46;;;;;;;7.10;3.70;;;;;19.00;99731.00;;;;13062214;22;20162;-78
2022/09/29 10:45:09;;;;;;;7.22;3.58;;;;;19.50;99724.00;;;;13066718;22;20729;-78
2022/09/29 10:50:11;;;;;;;4.22;2.75;;;;;19.90;99720.00;;;;13087737;22;20163;-78
2022/09/29 10:55:34;;;;;;;5.75;2.97;;;;;20.50;99723.00;;;;13122892;22;20266;-78
2022/09/29 11:00:37;;;;;;;3.08;2.70;;;;;20.70;99724.00;;;;13046329;22;20411;-76
2022/09/29 11:05:54;;;;;;;12.00;3.47;;;;;21.00;99724.00;;;;13017763;22;20186;-78
2022/09/29 11:11:16;;;;;;;3.35;2.10;;;;;21.40;99731.00;;;;13017184;22;20275;-76
2022/09/29 11:16:32;;;;;;;3.03;2.00;;;;;21.80;99734.00;;;;13019307;22;20199;-78
2022/09/29 11:21:43;;;;;;;3.25;1.50;;;;;21.90;99735.00;;;;13037887;22;20175;-75
2022/09/29 11:27:03;;;;;;;1.85;1.45;;;;;22.20;99728.00;;;;13050000;22;20191;-77
2022/09/29 11:32:18;;;;;;;4.05;1.60;;;;;22.40;99734.00;;;;13103169;22;20163;-78
2022/09/29 11:37:45;;;;;;;5.70;1.70;;;;;22.10;99737.00;;;;13055824;22;20217;-78
2022/09/29 11:43:16;;;;;;;4.15;2.20;;;;;20.00;99749.00;;;;13097264;22;20168;-77
2022/09/29 11:48:45;;;;;;;4.22;2.10;;;;;17.90;99761.00;;;;13006947;22;20198;-77
2022/09/29 11:53:53;;;;;;;3.35;1.85;;;;;16.50;99765.00;;;;13064003;22;20159;-77
2022/09/29 11:59:12;;;;;;;3.63;1.63;;;;;16.00;99753.00;;;;13064453;22;20283;-77
2022/09/29 12:04:49;;;;;;;7.88;1.70;;;;;15.70;99762.00;;;;13042078;22;20735;-77
2022/09/29 12:10:16;;;;;;;3.85;1.80;;;;;15.60;99766.00;;;;13061835;22;20723;-77
2022/09/29 12:15:22;;;;;;;5.03;1.80;;;;;17.60;99755.00;;;;13063625;22;20183;-77
2022/09/29 12:20:24;;;;;;;2.88;1.55;;;;;19.20;99750.00;;;;13046559;22;20168;-77
2022/09/29 12:25:29;;;;;;;2.17;1.30;;;;;20.50;99757.00;;;;13048763;22;20168;-77
2022/09/29 12:31:11;;;;;;;1.50;0.82;;;;;20.90;99747.00;;;;13099687;22;20312;-78
2022/09/29 12:36:44;;;;;;;1.67;1.10;;;;;21.50;99751.00;;;;13129339;22;20187;-77
2022/09/29 12:41:55;;;;;;;1.15;0.80;;;;;22.00;99744.00;;;;13130542;22;20351;-77
2022/09/29 12:47:11;;;;;;;2.65;1.45;;;;;21.90;99749.00;;;;13077955;22;20193;-77
2022/09/29 12:52:25;;;;;;;2.28;1.02;;;;;22.10;99746.00;;;;13096850;22;20162;-78
2022/09/29 12:57:38;;;;;;;6.32;2.10;;;;;22.80;99743.00;;;;13078453;22;20203;-77
2022/09/29 13:03:03;;;;;;;2.70;1.08;;;;;22.70;99750.00;;;;13080132;22;20609;-77
2022/09/29 13:08:11;;;;;;;1.70;0.68;;;;;21.80;99752.00;;;;13124246;22;20393;-77
2022/09/29 13:13:44;;;;;;;3.78;1.20;;;;;19.80;99757.00;;;;13065739;22;20214;-77
2022/09/29 13:19:20;;;;;;;3.28;1.10;;;;;18.50;99755.00;;;;13090374;22;20183;-77
2022/09/29 13:25:04;;;;;;;3.85;0.85;;;;;17.30;99755.00;;;;13116650;22;20171;-77
2022/09/29 13:30:18;;;;;;;1.17;0.65;;;;;16.90;99754.00;;;;13039875;22;20174;-77
2022/09/29 13:35:23;;;;;;;0.88;0.80;;;;;16.60;99767.00;;;;13085147;22;20240;-76
2022/09/29 13:40:27;;;;;;;0.90;0.63;;;;;16.60;99770.00;;;;13087869;22;20659;-77
2022/09/29 13:45:33;;;;;;;1.08;0.93;;;;;16.80;99776.00;;;;13040025;22;20270;-77
2022/09/29 13:50:41;;;;;;;0.60;0.60;;;;;16.80;99773.00;;;;13064692;22;20159;-76
2022/09/29 13:56:00;;;;;;;3.70;0.93;;;;;16.80;99776.00;;;;13064159;22;20179;-77
2022/09/29 14:01:05;;;;;;;2.78;0.82;;;;;17.00;99790.00;;;;13044194;22;20814;-77
2022/09/29 14:06:11;;;;;;;1.05;0.95;;;;;17.20;99788.00;;;;13041648;22;20228;-76
2022/09/29 14:11:36;;;;;;;1.83;0.73;;;;;17.10;99787.00;;;;13069202;22;20553;-76
2022/09/29 14:17:39;;;;;;;2.05;0.80;;;;;17.30;99791.00;;;;13067106;22;20203;-76
2022/09/29 14:22:43;;;;;;;1.15;0.70;;;;;17.40;99799.00;;;;12936553;22;20263;-77
2022/09/29 14:28:00;;;;;;;21.20;2.42;;;;;17.40;99805.00;;;;13067985;22;20503;-76
2022/09/29 14:33:37;;;;;;;2.15;0.60;;;;;17.50;99808.00;;;;12991482;22;20276;-76
2022/09/29 14:38:43;;;;;;;3.53;0.60;;;;;17.50;99809.00;;;;13007811;22;20195;-77
2022/09/29 14:43:48;;;;;;;1.05;0.60;;;;;17.20;99808.00;;;;13040435;22;20259;-76
2022/09/29 14:55:03;;;;;;;1.10;0.60;;;;;16.50;99825.00;;;;12925173;22;20241;-76
2022/09/29 15:00:16;;;;;;;1.95;0.80;;;;;16.40;99825.00;;;;12989962;22;20174;-76
2022/09/29 15:05:30;;;;;;;0.93;0.45;;;;;16.20;99822.00;;;;13014936;22;20225;-76
2022/09/29 15:10:41;;;;;;;1.10;0.50;;;;;16.20;99822.00;;;;13040948;22;20243;-76
2022/09/29 15:15:46;;;;;;;0.75;0.50;;;;;16.20;99837.00;;;;13041054;22;20731;-76
2022/09/29 15:21:05;;;;;;;1.00;0.60;;;;;16.00;99832.00;;;;13115633;22;20209;-76
2022/09/29 15:26:12;;;;;;;1.85;0.60;;;;;15.90;99831.00;;;;13088145;22;20542;-76
2022/09/29 15:31:26;;;;;;;1.92;0.70;;;;;15.70;99842.00;;;;13041056;22;20167;-76
2022/09/29 15:36:35;;;;;;;3.00;0.77;;;;;15.50;99855.00;;;;13015656;22;20245;-76
2022/09/29 15:41:36;;;;;;;1.30;1.10;;;;;15.20;99857.00;;;;13015617;22;20171;-76
2022/09/29 15:46:47;;;;;;;2.50;1.50;;;;;14.90;99852.00;;;;13088871;22;20187;-76
2022/09/29 15:52:05;;;;;;;4.43;1.42;;;;;14.70;99852.00;;;;13039090;22;20167;-76
2022/09/29 16:02:40;;;;;;;2.80;1.98;;;;;14.50;99873.00;;;;13067393;22;20164;-76
2022/09/29 16:07:57;;;;;;;2.90;1.33;;;;;14.40;99883.00;;;;13062358;22;20785;-76
2022/09/29 16:13:07;;;;;;;3.77;2.00;;;;;14.30;99895.00;;;;13040959;22;20754;-75
2022/09/29 16:18:19;;;;;;;6.27;1.60;;;;;14.20;99895.00;;;;12989690;22;20558;-76
2022/09/29 16:23:24;;;;;;;1.40;1.30;;;;;14.00;99910.00;;;;13039113;22;20171;-75
2022/09/29 16:28:28;;;;;;;2.30;1.63;;;;;13.80;99923.00;;;;13061545;22;20190;-75
2022/09/29 16:33:32;;;;;;;1.87;1.60;;;;;13.50;99935.00;;;;13111953;22;20281;-75
2022/09/29 16:38:36;;;;;;;3.20;1.60;;;;;13.30;99935.00;;;;13057647;22;20194;-75
2022/09/29 16:43:40;;;;;;;2.33;1.70;;;;;13.00;99947.00;;;;13087614;22;20163;-75
2022/09/29 16:48:44;;;;;;;4.70;1.90;;;;;12.80;99956.00;;;;13085150;22;20163;-75
2022/09/29 16:53:46;;;;;;;6.20;2.33;;;;;12.60;99955.00;;;;13059682;22;20182;-75
2022/09/29 16:59:03;;;;;;;4.83;2.67;;;;;12.40;99957.00;;;;13061463;22;20183;-75
2022/09/29 17:04:04;;;;;;;3.40;2.20;;;;;12.10;99960.00;;;;13086938;22;20173;-75
2022/09/29 17:09:05;;;;;;;2.57;1.73;;;;;11.90;99970.00;;;;13013030;22;20224;-75
2022/09/29 17:14:12;;;;;;;4.50;2.73;;;;;11.70;99968.00;;;;13059194;22;20194;-75
2022/09/29 17:19:14;;;;;;;4.83;2.93;;;;;11.40;99965.00;;;;13034122;22;20510;-75
2022/09/29 17:24:15;;;;;;;6.63;3.33;;;;;11.30;99973.00;;;;13090319;22;20171;-75
2022/09/29 17:29:16;;;;;;;4.67;2.67;;;;;11.20;99969.00;;;;13057682;22;20618;-75
2022/09/29 17:34:20;;;;;;;3.17;2.70;;;;;11.30;99986.00;;;;13041420;22;20214;-75
2022/09/29 17:39:22;;;;;;;5.33;2.40;;;;;11.30;99995.00;;;;13014111;22;20628;-75
2022/09/29 17:44:26;;;;;;;3.53;3.07;;;;;11.40;99994.00;;;;13036194;22;20662;-75
2022/09/29 17:49:28;;;;;;;4.73;2.80;;;;;11.30;99996.00;;;;13041416;22;20168;-75
2022/09/29 17:54:30;;;;;;;6.00;3.40;;;;;11.10;99994.00;;;;13089417;22;20163;-75
2022/09/29 17:59:33;;;;;;;6.53;3.93;;;;;11.00;100008.00;;;;13058388;22;20176;-75
2022/09/29 18:04:38;;;;;;;4.17;3.53;;;;;10.90;100007.00;;;;13037519;22;20175;-75
2022/09/29 18:09:40;;;;;;;5.17;3.93;;;;;10.80;100014.00;;;;13038293;22;20203;-75
2022/09/29 18:14:41;;;;;;;6.37;4.33;;;;;10.70;100018.00;;;;13040489;22;20168;-75
2022/09/29 18:19:42;;;;;;;5.90;4.00;;;;;10.60;100010.00;;;;13085925;22;20759;-75
2022/09/29 18:24:43;;;;;;;4.53;3.50;;;;;10.60;100015.00;;;;13015591;22;20171;-75
2022/09/29 18:29:44;;;;;;;3.83;3.00;;;;;10.60;100025.00;;;;13067002;22;20865;-75
2022/09/29 18:34:46;;;;;;;5.27;3.33;;;;;10.60;100028.00;;;;13062959;22;20225;-75
2022/09/29 18:39:47;;;;;;;2.80;2.40;;;;;10.50;100031.00;;;;13061688;22;20229;-75
2022/09/29 18:44:50;;;;;;;3.40;3.00;;;;;10.40;100040.00;;;;13064658;22;20175;-75
2022/09/29 18:49:51;;;;;;;5.30;3.30;;;;;10.30;100040.00;;;;13040551;22;20175;-75
2022/09/29 18:54:52;;;;;;;7.10;4.17;;;;;10.10;100043.00;;;;13038381;22;20270;-75
2022/09/29 18:59:53;;;;;;;6.70;5.17;;;;;9.90;100049.00;;;;13064796;22;20233;-75
2022/09/29 19:04:56;;;;;;;4.47;4.00;;;;;9.70;100069.00;;;;13085111;22;20163;-75
2022/09/29 19:09:57;;;;;;;6.10;5.30;;;;;9.50;100066.00;;;;13057574;22;20270;-75
2022/09/29 19:14:59;;;;;;;12.20;7.03;;;;;9.30;100061.00;;;;13086962;22;20221;-75
2022/09/29 19:20:01;;;;;;;11.13;6.57;;;;;9.20;100068.00;;;;13040751;22;20172;-75
2022/09/29 19:25:04;;;;;;;11.77;6.50;;;;;9.10;100076.00;;;;13066264;22;20168;-75
2022/09/29 19:30:06;;;;;;;13.50;7.47;;;;;9.00;100089.00;;;;13039662;22;20171;-75
2022/09/29 19:35:12;;;;;;;12.30;7.60;;;;;9.00;100099.00;;;;13086360;22;20183;-75
2022/09/29 19:40:23;;;;;;;10.07;7.40;;;;;8.90;100101.00;;;;13056629;22;20167;-75
2022/09/29 19:45:24;;;;;;;6.50;5.67;;;;;8.80;100102.00;;;;13085837;22;20251;-75
2022/09/29 19:55:46;;;;;;;7.70;5.87;;;;;8.60;100117.00;;;;13087805;22;20716;-75
2022/09/29 20:00:47;;;;;;;18.47;16.57;;;;;8.50;100132.00;;;;13086408;22;20779;-75
2022/09/29 20:05:48;;;;;;;9.90;8.93;;;;;8.50;100135.00;;;;13040132;22;20172;-75
2022/09/29 20:10:49;;;;;;;11.07;8.20;;;;;8.50;100140.00;;;;13066504;22;20187;-76
2022/09/29 20:15:50;;;;;;;9.63;7.57;;;;;8.60;100151.00;;;;13038010;22;20196;-75
2022/09/29 20:20:52;;;;;;;8.53;6.30;;;;;8.60;100156.00;;;;13014655;22;20178;-76
2022/09/29 20:26:01;;;;;;;12.30;9.17;;;;;8.50;100154.00;;;;13065335;22;20246;-76
2022/09/29 20:31:04;;;;;;;13.33;10.23;;;;;8.40;100157.00;;;;13036676;22;20243;-76
2022/09/29 20:36:05;;;;;;;17.40;13.77;;;;;8.40;100161.00;;;;13061796;22;20506;-76
2022/09/29 20:41:07;;;;;;;10.17;7.43;;;;;8.40;100162.00;;;;13060432;22;20156;-76
2022/09/29 20:46:10;;;;;;;7.67;6.90;;;;;8.40;100162.00;;;;13037963;22;20168;-76
2022/09/29 20:51:16;;;;;;;10.63;7.03;;;;;8.30;100174.00;;;;13034459;22;20391;-76
2022/09/29 20:56:17;;;;;;;7.57;6.43;;;;;8.20;100182.00;;;;13037641;22;20779;-75
2022/09/29 21:01:24;;;;;;;8.03;6.43;;;;;8.10;100191.00;;;;13085062;22;20246;-76
2022/09/29 21:06:30;;;;;;;9.27;8.23;;;;;8.00;100197.00;;;;13015008;22;20167;-75
2022/09/29 21:11:37;;;;;;;7.67;6.87;;;;;7.90;100200.00;;;;13040768;22;20191;-75
2022/09/29 21:16:43;;;;;;;9.20;6.77;;;;;7.80;100200.00;;;;13039645;22;20217;-75
2022/09/29 21:21:44;;;;;;;10.10;8.33;;;;;7.80;100211.00;;;;13038264;22;20174;-75
2022/09/29 21:26:46;;;;;;;12.97;7.97;;;;;7.70;100209.00;;;;13063533;22;20155;-75
2022/09/29 21:31:47;;;;;;;9.33;7.77;;;;;7.70;100212.00;;;;12992172;22;20191;-76
2022/09/29 21:36:48;;;;;;;11.67;8.83;;;;;7.70;100213.00;;;;13042238;22;20194;-75
2022/09/29 21:41:49;;;;;;;11.67;8.80;;;;;7.60;100227.00;;;;13017370;22;20205;-75
2022/09/29 21:46:51;;;;;;;10.60;8.13;;;;;7.60;100226.00;;;;13017451;22;20178;-75
2022/09/29 21:51:52;;;;;;;10.43;9.20;;;;;7.60;100220.00;;;;13088217;22;20167;-76
2022/09/29 21:56:54;;;;;;;13.37;10.00;;;;;7.60;100225.00;;;;13065269;22;20442;-76
2022/09/29 22:01:55;;;;;;;12.00;9.67;;;;;7.70;100223.00;;;;13069423;22;20537;-76
2022/09/29 22:06:57;;;;;;;13.90;9.37;;;;;7.60;100223.00;;;;13064773;22;20670;-76
2022/09/29 22:11:59;;;;;;;13.30;10.77;;;;;7.60;100223.00;;;;13088894;22;20211;-76
2022/09/29 22:17:00;;;;;;;14.90;10.07;;;;;7.70;100235.00;;;;13019548;22;20191;-76
2022/09/29 22:22:01;;;;;;;12.43;9.90;;;;;7.60;100241.00;;;;13040610;22;20167;-76
2022/09/29 22:27:03;;;;;;;11.43;9.73;;;;;7.60;100238.00;;;;13016861;22;20633;-76
2022/09/29 22:32:05;;;;;;;12.93;9.20;;;;;7.50;100250.00;;;;13063638;22;20164;-76
2022/09/29 22:37:06;;;;;;;18.73;11.20;;;;;7.40;100248.00;;;;13018130;22;20199;-76
2022/09/29 22:42:07;;;;;;;15.37;9.87;;;;;7.40;100254.00;;;;13068961;22;20170;-76
2022/09/29 22:47:08;;;;;;;15.13;10.47;;;;;7.40;100249.00;;;;13064735;22;20159;-76
2022/09/29 22:52:09;;;;;;;16.77;10.03;;;;;7.40;100256.00;;;;13066221;22;20178;-76
2022/09/29 22:57:10;;;;;;;16.73;12.10;;;;;7.40;100269.00;;;;13042961;22;20195;-76
2022/09/29 23:02:11;;;;;;;20.93;11.10;;;;;7.40;100261.00;;;;13119749;22;20246;-76
2022/09/29 23:07:13;;;;;;;16.87;12.63;;;;;7.40;100269.00;;;;13064052;22;20615;-76
2022/09/29 23:12:14;;;;;;;15.20;10.93;;;;;7.30;100275.00;;;;13042407;22;20199;-76
2022/09/29 23:17:15;;;;;;;15.90;11.60;;;;;7.30;100278.00;;;;13062176;22;20184;-76
2022/09/29 23:22:16;;;;;;;14.00;10.63;;;;;7.30;100277.00;;;;13088697;22;20159;-76
2022/09/29 23:27:19;;;;;;;16.37;11.40;;;;;7.30;100275.00;;;;13015953;22;20168;-76
2022/09/29 23:32:20;;;;;;;17.83;13.17;;;;;7.20;100266.00;;;;13089355;22;20163;-76
2022/09/29 23:39:08;;;;;;;23.30;15.40;;;;;7.30;100274.00;;;;13016161;22;20195;-76
2022/09/29 23:42:42;;;;;;;17.77;14.13;;;;;7.30;100274.00;;;;13116313;22;20164;-76
2022/09/29 23:47:45;;;;;;;21.03;14.33;;;;;7.30;100277.00;;;;13063219;22;20220;-76
2022/09/29 23:52:47;;;;;;;20.47;14.07;;;;;7.30;100277.00;;;;13062636;22;20164;-76
2022/09/29 23:57:48;;;;;;;25.37;13.47;;;;;7.20;100273.00;;;;13041222;22;20188;-76
